KPVD/PVD METAR and TAF weather

Enter ICAO airport designator
Station Type Date Time Source
KPVD METAR 2019/10/23 07:07 UTC NOAA

KPVD 230707Z AUTO 00000KT 1 1/2SM BR OVC004 14/14 A2979 RMK AO2 RAE02 P0001 T01390139


Station Type Date Time Source
KPVD Decoded METAR 2019/10/23 07:07 UTC NOAA

PROVIDENCE GREEN STATE AIRPORT , RI, United States (KPVD) 41-44N 071-26W 16M
Oct 23, 2019 - 03:07 AM EDT / 2019.10.23 0707 UTC
Wind: Calm:0
Visibility: 1 1/2 mile(s):0
Sky conditions: overcast
Weather: mist
Precipitation last hour: 0.01 inches
Temperature: 57.0 F (13.9 C)
Dew Point: 57.0 F (13.9 C)
Relative Humidity: 100%
Pressure (altimeter): 29.79 in. Hg (1008 hPa)
ob: KPVD 230707Z AUTO 00000KT 1 1/2SM BR OVC004 14/14 A2979 RMK AO2 RAE02 P0001 T01390139
cycle: 7

Station Type Date Time Source
KPVD TAF 2019/10/23 06:36 UTC NOAA

TAF KPVD 230535Z 2306/2406 00000KT 4SM -SHRA BR OVC004
FM230800 16005KT 3/4SM -SHRA BR OVC003
FM231000 19005KT 1SM SHRA BR OVC003
FM231200 25006KT 2SM BR VCSH OVC003
FM231300 28007KT 5SM BR BKN008
FM231400 30009KT P6SM BKN025
FM231500 30011G21KT P6SM SCT070

Example: see airport list